createdAt,value
2019-01-20T00:24:05.775Z,-4.80
2019-01-20T00:26:28.901Z,-4.70
2019-01-20T00:37:02.557Z,-5.00
2019-01-20T00:40:27.070Z,-5.10
2019-01-20T01:57:14.647Z,-4.80
2019-01-20T06:20:24.339Z,-3.30
2019-01-20T06:36:12.984Z,-3.60
2019-01-20T06:51:56.452Z,-3.90
2019-01-20T06:59:01.781Z,-4.10
2019-01-20T07:01:54.838Z,-4.20
2019-01-20T07:05:25.466Z,-4.30
2019-01-20T07:09:02.754Z,-4.30
2019-01-20T07:15:05.580Z,-4.20
2019-01-20T07:18:29.460Z,-4.20
2019-01-20T07:21:47.216Z,-4.10
2019-01-20T07:28:12.124Z,-4.10
2019-01-20T07:30:54.277Z,-4.20
2019-01-20T07:33:37.417Z,-4.20
2019-01-20T07:36:46.081Z,-4.20
2019-01-20T07:40:01.970Z,-4.10
2019-01-20T07:43:34.101Z,-4.10
2019-01-20T07:53:50.265Z,-4.10
2019-01-20T07:56:44.373Z,-3.90
2019-01-20T08:03:34.433Z,-3.80
2019-01-20T08:06:18.332Z,-3.90
2019-01-20T08:09:35.290Z,-3.90
2019-01-20T08:16:13.088Z,-3.80
2019-01-20T08:19:05.837Z,-3.70
2019-01-20T08:25:15.772Z,-3.70
2019-01-20T08:28:42.091Z,-3.60
2019-01-20T08:32:18.472Z,-3.60
2019-01-20T08:35:06.483Z,-3.50
2019-01-20T09:27:15.066Z,-2.40
2019-01-20T09:30:08.597Z,-2.40
2019-01-20T09:30:11.097Z,-3.10
2019-01-20T09:33:15.363Z,-2.20
2019-01-20T09:36:02.584Z,-2.30
2019-01-20T09:38:34.958Z,-2.10
2019-01-20T09:38:55.437Z,-2.60
2019-01-20T09:41:09.955Z,-2.10
2019-01-20T09:44:23.908Z,-2.00
2019-01-20T09:47:00.158Z,-2.00
2019-01-20T09:49:37.688Z,-2.00
2019-01-20T09:52:16.682Z,-1.90
2019-01-20T09:54:51.659Z,-2.00
2019-01-20T09:57:23.585Z,-2.10
2019-01-20T09:59:59.171Z,-2.00
2019-01-20T10:02:29.699Z,-2.00
2019-01-20T10:05:21.377Z,-2.10
2019-01-20T10:08:14.266Z,-1.90
2019-01-20T10:23:55.619Z,-1.90
2019-01-20T10:29:42.371Z,-1.80
2019-01-20T10:32:24.997Z,-1.80
2019-01-20T10:35:51.239Z,-1.70
2019-01-20T10:39:34.333Z,-1.70
2019-01-20T10:42:56.199Z,-1.60
2019-01-20T10:46:14.198Z,-1.40
2019-01-20T10:56:42.634Z,-1.20
2019-01-20T10:59:46.744Z,-1.30
2019-01-20T11:03:11.342Z,-1.20
2019-01-20T11:06:20.228Z,-1.20
2019-01-20T11:09:57.295Z,-1.10
2019-01-20T11:12:57.153Z,-1.00
2019-01-20T11:16:10.242Z,-0.80
2019-01-20T11:27:23.408Z,-0.60
2019-01-20T11:30:35.264Z,-0.50
2019-01-20T11:33:09.250Z,-0.40
2019-01-20T11:36:16.366Z,-0.30
2019-01-20T11:42:45.512Z,-0.20
2019-01-20T11:45:45.960Z,-0.20
2019-01-20T11:48:18.413Z,-0.10
2019-01-20T11:57:32.724Z,0.10
2019-01-20T12:00:44.973Z,0.20
2019-01-20T12:04:10.348Z,0.20
2019-01-20T12:06:42.604Z,0.40
2019-01-20T12:23:25.410Z,0.50
2019-01-20T12:52:26.602Z,2.10
2019-01-20T13:19:40.320Z,7.40
2019-01-20T13:22:33.172Z,8.60
2019-01-20T13:25:15.451Z,9.00
2019-01-20T13:31:50.227Z,9.10
2019-01-20T13:41:39.348Z,8.90
2019-01-20T13:45:22.190Z,7.40
2019-01-20T13:48:03.054Z,8.40
2019-01-20T13:50:43.396Z,10.10
2019-01-20T13:53:15.153Z,10.80
2019-01-20T13:56:01.014Z,9.80
2019-01-20T13:58:26.004Z,9.30
2019-01-20T14:01:00.591Z,9.80
2019-01-20T14:03:32.564Z,9.40
2019-01-20T14:06:25.565Z,8.80
2019-01-20T14:09:51.006Z,7.80
2019-01-20T17:21:23.298Z,-2.40
2019-01-20T17:24:55.054Z,-2.40
2019-01-20T17:45:48.511Z,-2.80
2019-01-20T17:48:52.863Z,-2.90
2019-01-20T18:13:46.487Z,-3.30
2019-01-20T19:26:05.939Z,-4.00
2019-01-20T19:29:02.923Z,-4.00
2019-01-20T19:31:39.972Z,-4.10
2019-01-20T19:34:27.296Z,-4.20
2019-01-20T19:36:56.463Z,-4.30
2019-01-20T19:39:30.812Z,-4.20
2019-01-20T19:45:08.225Z,-4.30
2019-01-20T19:48:20.844Z,-4.40
2019-01-20T19:50:50.559Z,-4.40
2019-01-20T19:53:59.754Z,-4.40
2019-01-20T19:56:41.890Z,-4.50
2019-01-20T19:59:47.245Z,-4.60
2019-01-20T20:03:18.740Z,-4.50
2019-01-20T20:07:04.764Z,-4.50
2019-01-20T20:09:49.356Z,-4.40
2019-01-20T20:12:40.058Z,-4.50
2019-01-20T20:15:33.109Z,-4.50
2019-01-20T20:18:22.709Z,-4.50
2019-01-20T20:25:18.886Z,-4.60
2019-01-20T20:28:43.386Z,-4.80
2019-01-20T20:38:48.639Z,-4.70
2019-01-20T20:39:54.223Z,-4.80
2019-01-20T20:41:27.021Z,-4.70
2019-01-20T20:44:28.229Z,-4.70
2019-01-20T20:47:06.206Z,-4.70
2019-01-20T20:49:42.350Z,-4.80
2019-01-20T20:54:21.056Z,-4.80
2019-01-20T20:55:35.985Z,-4.80
2019-01-20T20:58:35.711Z,-4.70
2019-01-20T21:08:21.269Z,-4.80
2019-01-20T21:14:20.221Z,-5.00
2019-01-20T21:15:26.951Z,-4.80
2019-01-20T21:17:08.806Z,-5.10
2019-01-20T21:19:44.780Z,-5.20
2019-01-20T21:22:29.904Z,-5.30
2019-01-20T21:25:06.068Z,-5.30
2019-01-20T21:28:00.864Z,-5.20
2019-01-20T21:38:15.509Z,-5.40
2019-01-20T21:41:22.769Z,-5.40
2019-01-20T21:44:27.807Z,-5.30
2019-01-20T21:47:04.137Z,-5.30
2019-01-20T21:49:41.158Z,-5.40
2019-01-20T21:52:33.721Z,-5.30
2019-01-20T21:55:45.926Z,-5.30
2019-01-20T21:58:30.585Z,-5.30
2019-01-20T22:01:05.954Z,-5.30
2019-01-20T22:03:53.283Z,-5.20
2019-01-20T22:06:32.652Z,-5.50
2019-01-20T22:09:09.046Z,-5.60
2019-01-20T22:11:39.536Z,-5.60
2019-01-20T22:14:20.134Z,-5.60
2019-01-20T22:16:59.946Z,-5.60
2019-01-20T22:19:48.125Z,-5.70
2019-01-20T22:22:20.980Z,-5.70
2019-01-20T22:24:57.173Z,-5.70
2019-01-20T22:28:07.045Z,-5.80
2019-01-20T22:30:43.073Z,-5.80
2019-01-20T22:33:13.729Z,-5.80
2019-01-20T22:35:51.037Z,-5.90
2019-01-20T22:38:34.386Z,-5.60
2019-01-20T22:41:12.616Z,-5.60
2019-01-20T22:43:41.879Z,-5.60
2019-01-20T22:46:11.369Z,-5.70
2019-01-20T22:52:31.926Z,-5.80
2019-01-20T22:58:48.606Z,-5.70
2019-01-20T23:01:40.392Z,-5.90
2019-01-20T23:04:12.097Z,-6.00
2019-01-20T23:06:42.178Z,-6.00
2019-01-20T23:09:37.935Z,-6.00
2019-01-20T23:12:19.169Z,-5.90
2019-01-20T23:17:53.087Z,-6.10
2019-01-20T23:20:59.109Z,-6.00
2019-01-20T23:23:40.077Z,-5.90
2019-01-20T23:26:10.448Z,-6.00
2019-01-20T23:29:10.105Z,-6.00
2019-01-20T23:31:40.624Z,-6.10
2019-01-20T23:41:37.033Z,-6.20
2019-01-20T23:52:08.684Z,-6.20
